sensor_id;sensor_type;location;lat;lon;timestamp;temperature;humidity
64961;SHT31;51487;52.266;10.542;2022-08-03T00:01:54;21.11;63.63
64961;SHT31;51487;52.266;10.542;2022-08-03T00:04:20;21.05;64.03
64961;SHT31;51487;52.266;10.542;2022-08-03T00:06:45;21.02;64.06
64961;SHT31;51487;52.266;10.542;2022-08-03T00:09:11;21.00;64.61
64961;SHT31;51487;52.266;10.542;2022-08-03T00:11:37;21.01;64.22
64961;SHT31;51487;52.266;10.542;2022-08-03T00:14:05;20.94;64.49
64961;SHT31;51487;52.266;10.542;2022-08-03T00:16:31;20.91;64.32
64961;SHT31;51487;52.266;10.542;2022-08-03T00:18:56;20.88;64.75
64961;SHT31;51487;52.266;10.542;2022-08-03T00:21:22;20.83;64.71
64961;SHT31;51487;52.266;10.542;2022-08-03T00:23:48;20.79;64.80
64961;SHT31;51487;52.266;10.542;2022-08-03T00:26:13;20.76;64.94
64961;SHT31;51487;52.266;10.542;2022-08-03T00:28:39;20.73;65.27
64961;SHT31;51487;52.266;10.542;2022-08-03T00:31:05;20.67;65.45
64961;SHT31;51487;52.266;10.542;2022-08-03T00:33:31;20.66;65.24
64961;SHT31;51487;52.266;10.542;2022-08-03T00:35:57;20.64;65.33
64961;SHT31;51487;52.266;10.542;2022-08-03T00:38:23;20.60;65.60
64961;SHT31;51487;52.266;10.542;2022-08-03T00:40:48;20.57;65.55
64961;SHT31;51487;52.266;10.542;2022-08-03T00:43:14;20.53;65.53
64961;SHT31;51487;52.266;10.542;2022-08-03T00:45:41;20.49;65.58
64961;SHT31;51487;52.266;10.542;2022-08-03T00:48:11;20.49;65.74
64961;SHT31;51487;52.266;10.542;2022-08-03T00:50:42;20.44;65.78
64961;SHT31;51487;52.266;10.542;2022-08-03T00:53:10;20.42;65.91
64961;SHT31;51487;52.266;10.542;2022-08-03T00:55:40;20.40;65.95
64961;SHT31;51487;52.266;10.542;2022-08-03T00:58:07;20.43;65.94
64961;SHT31;51487;52.266;10.542;2022-08-03T01:00:38;20.39;65.90
64961;SHT31;51487;52.266;10.542;2022-08-03T01:03:08;20.36;66.00
64961;SHT31;51487;52.266;10.542;2022-08-03T01:08:19;20.29;66.42
64961;SHT31;51487;52.266;10.542;2022-08-03T01:11:14;20.25;66.21
64961;SHT31;51487;52.266;10.542;2022-08-03T01:16:32;20.21;66.23
64961;SHT31;51487;52.266;10.542;2022-08-03T01:19:34;20.16;66.09
64961;SHT31;51487;52.266;10.542;2022-08-03T01:25:07;20.15;66.25
64961;SHT31;51487;52.266;10.542;2022-08-03T01:30:18;20.11;66.24
64961;SHT31;51487;52.266;10.542;2022-08-03T01:33:04;20.12;66.31
64961;SHT31;51487;52.266;10.542;2022-08-03T01:35:44;20.16;66.17
64961;SHT31;51487;52.266;10.542;2022-08-03T01:38:19;20.12;66.22
64961;SHT31;51487;52.266;10.542;2022-08-03T01:40:47;20.12;66.18
64961;SHT31;51487;52.266;10.542;2022-08-03T01:43:18;20.11;66.19
64961;SHT31;51487;52.266;10.542;2022-08-03T01:45:46;20.11;66.13
64961;SHT31;51487;52.266;10.542;2022-08-03T01:48:16;20.09;66.11
64961;SHT31;51487;52.266;10.542;2022-08-03T01:50:44;20.11;66.08
64961;SHT31;51487;52.266;10.542;2022-08-03T01:53:14;20.05;65.99
64961;SHT31;51487;52.266;10.542;2022-08-03T01:55:45;20.04;66.27
64961;SHT31;51487;52.266;10.542;2022-08-03T01:58:15;19.98;66.14
64961;SHT31;51487;52.266;10.542;2022-08-03T02:00:43;19.98;66.34
64961;SHT31;51487;52.266;10.542;2022-08-03T02:03:12;19.98;66.37
64961;SHT31;51487;52.266;10.542;2022-08-03T02:05:39;19.96;66.25
64961;SHT31;51487;52.266;10.542;2022-08-03T02:08:09;19.95;66.58
64961;SHT31;51487;52.266;10.542;2022-08-03T02:10:40;19.92;66.50
64961;SHT31;51487;52.266;10.542;2022-08-03T02:13:08;19.91;66.58
64961;SHT31;51487;52.266;10.542;2022-08-03T02:15:36;19.91;66.59
64961;SHT31;51487;52.266;10.542;2022-08-03T02:18:05;19.91;66.58
64961;SHT31;51487;52.266;10.542;2022-08-03T02:20:33;19.86;66.61
64961;SHT31;51487;52.266;10.542;2022-08-03T02:23:02;19.85;66.72
64961;SHT31;51487;52.266;10.542;2022-08-03T02:25:29;19.82;66.68
64961;SHT31;51487;52.266;10.542;2022-08-03T02:28:10;19.85;66.92
64961;SHT31;51487;52.266;10.542;2022-08-03T02:30:39;19.82;66.74
64961;SHT31;51487;52.266;10.542;2022-08-03T02:33:13;19.84;66.73
64961;SHT31;51487;52.266;10.542;2022-08-03T02:35:43;19.79;67.04
64961;SHT31;51487;52.266;10.542;2022-08-03T02:38:10;19.81;66.85
64961;SHT31;51487;52.266;10.542;2022-08-03T02:40:38;19.81;66.90
64961;SHT31;51487;52.266;10.542;2022-08-03T02:43:10;19.81;66.87
64961;SHT31;51487;52.266;10.542;2022-08-03T02:45:44;19.75;66.86
64961;SHT31;51487;52.266;10.542;2022-08-03T02:48:16;19.74;66.82
64961;SHT31;51487;52.266;10.542;2022-08-03T02:50:44;19.75;66.87
64961;SHT31;51487;52.266;10.542;2022-08-03T02:53:11;19.70;66.89
64961;SHT31;51487;52.266;10.542;2022-08-03T02:55:38;19.71;67.20
64961;SHT31;51487;52.266;10.542;2022-08-03T02:58:06;19.70;67.87
64961;SHT31;51487;52.266;10.542;2022-08-03T03:00:33;19.67;67.74
64961;SHT31;51487;52.266;10.542;2022-08-03T03:03:01;19.67;67.77
64961;SHT31;51487;52.266;10.542;2022-08-03T03:05:28;19.63;67.66
64961;SHT31;51487;52.266;10.542;2022-08-03T03:07:55;19.54;67.59
64961;SHT31;51487;52.266;10.542;2022-08-03T03:10:22;19.53;67.44
64961;SHT31;51487;52.266;10.542;2022-08-03T03:12:52;19.51;67.52
64961;SHT31;51487;52.266;10.542;2022-08-03T03:15:20;19.49;67.35
64961;SHT31;51487;52.266;10.542;2022-08-03T03:17:48;19.50;67.38
64961;SHT31;51487;52.266;10.542;2022-08-03T03:20:15;19.43;67.61
64961;SHT31;51487;52.266;10.542;2022-08-03T03:22:43;19.44;67.67
64961;SHT31;51487;52.266;10.542;2022-08-03T03:25:10;19.44;67.54
64961;SHT31;51487;52.266;10.542;2022-08-03T03:27:36;19.43;67.45
64961;SHT31;51487;52.266;10.542;2022-08-03T03:30:03;19.44;67.57
64961;SHT31;51487;52.266;10.542;2022-08-03T03:32:29;19.41;67.39
64961;SHT31;51487;52.266;10.542;2022-08-03T03:34:56;19.43;67.41
64961;SHT31;51487;52.266;10.542;2022-08-03T03:37:24;19.43;67.30
64961;SHT31;51487;52.266;10.542;2022-08-03T03:39:53;19.41;67.16
64961;SHT31;51487;52.266;10.542;2022-08-03T03:42:19;19.43;67.16
64961;SHT31;51487;52.266;10.542;2022-08-03T03:44:45;19.44;67.07
64961;SHT31;51487;52.266;10.542;2022-08-03T03:47:12;19.43;67.04
64961;SHT31;51487;52.266;10.542;2022-08-03T03:49:38;19.53;67.22
64961;SHT31;51487;52.266;10.542;2022-08-03T03:52:05;19.50;66.85
64961;SHT31;51487;52.266;10.542;2022-08-03T03:54:44;19.47;66.79
64961;SHT31;51487;52.266;10.542;2022-08-03T03:57:10;19.43;66.84
64961;SHT31;51487;52.266;10.542;2022-08-03T03:59:41;19.41;66.87
64961;SHT31;51487;52.266;10.542;2022-08-03T04:02:08;19.46;66.95
64961;SHT31;51487;52.266;10.542;2022-08-03T04:04:35;19.44;66.92
64961;SHT31;51487;52.266;10.542;2022-08-03T04:07:20;19.43;67.04
64961;SHT31;51487;52.266;10.542;2022-08-03T04:10:20;19.47;67.21
64961;SHT31;51487;52.266;10.542;2022-08-03T04:13:11;19.49;67.11
64961;SHT31;51487;52.266;10.542;2022-08-03T04:15:39;19.47;67.32
64961;SHT31;51487;52.266;10.542;2022-08-03T04:18:08;19.47;67.24
64961;SHT31;51487;52.266;10.542;2022-08-03T04:20:39;19.49;67.44
64961;SHT31;51487;52.266;10.542;2022-08-03T04:23:08;19.51;67.37
64961;SHT31;51487;52.266;10.542;2022-08-03T04:25:38;19.55;67.32
64961;SHT31;51487;52.266;10.542;2022-08-03T04:28:05;19.58;67.19
64961;SHT31;51487;52.266;10.542;2022-08-03T04:30:35;19.63;67.05
64961;SHT31;51487;52.266;10.542;2022-08-03T04:33:02;19.63;66.97
64961;SHT31;51487;52.266;10.542;2022-08-03T04:35:33;19.65;67.04
64961;SHT31;51487;52.266;10.542;2022-08-03T04:38:06;19.70;66.83
64961;SHT31;51487;52.266;10.542;2022-08-03T04:40:39;19.74;66.97
64961;SHT31;51487;52.266;10.542;2022-08-03T04:43:08;19.81;67.12
64961;SHT31;51487;52.266;10.542;2022-08-03T04:45:36;19.85;67.02
64961;SHT31;51487;52.266;10.542;2022-08-03T04:48:03;19.86;66.90
64961;SHT31;51487;52.266;10.542;2022-08-03T04:50:29;19.89;66.66
64961;SHT31;51487;52.266;10.542;2022-08-03T04:52:56;19.94;67.53
64961;SHT31;51487;52.266;10.542;2022-08-03T04:55:30;19.98;66.26
64961;SHT31;51487;52.266;10.542;2022-08-03T04:57:57;20.05;66.79
64961;SHT31;51487;52.266;10.542;2022-08-03T05:00:23;20.11;66.78
64961;SHT31;51487;52.266;10.542;2022-08-03T05:02:49;20.16;66.41
64961;SHT31;51487;52.266;10.542;2022-08-03T05:05:16;20.22;66.37
64961;SHT31;51487;52.266;10.542;2022-08-03T05:07:41;20.33;66.99
64961;SHT31;51487;52.266;10.542;2022-08-03T05:10:10;20.39;66.30
64961;SHT31;51487;52.266;10.542;2022-08-03T05:12:36;20.43;66.04
64961;SHT31;51487;52.266;10.542;2022-08-03T05:15:03;20.50;65.71
64961;SHT31;51487;52.266;10.542;2022-08-03T05:17:29;20.59;66.18
64961;SHT31;51487;52.266;10.542;2022-08-03T05:19:55;20.67;66.29
64961;SHT31;51487;52.266;10.542;2022-08-03T05:22:22;20.74;65.98
64961;SHT31;51487;52.266;10.542;2022-08-03T05:24:48;20.81;65.49
64961;SHT31;51487;52.266;10.542;2022-08-03T05:27:14;20.83;65.22
64961;SHT31;51487;52.266;10.542;2022-08-03T05:29:49;20.84;65.21
64961;SHT31;51487;52.266;10.542;2022-08-03T05:32:16;20.92;65.24
64961;SHT31;51487;52.266;10.542;2022-08-03T05:34:42;20.91;65.35
64961;SHT31;51487;52.266;10.542;2022-08-03T05:37:08;20.95;66.13
64961;SHT31;51487;52.266;10.542;2022-08-03T05:39:34;20.95;65.44
64961;SHT31;51487;52.266;10.542;2022-08-03T05:42:00;20.98;64.91
64961;SHT31;51487;52.266;10.542;2022-08-03T05:44:26;21.01;64.89
64961;SHT31;51487;52.266;10.542;2022-08-03T05:46:52;21.07;64.90
64961;SHT31;51487;52.266;10.542;2022-08-03T05:49:18;21.04;65.11
64961;SHT31;51487;52.266;10.542;2022-08-03T05:51:44;21.10;65.32
64961;SHT31;51487;52.266;10.542;2022-08-03T05:54:10;21.17;64.62
64961;SHT31;51487;52.266;10.542;2022-08-03T05:56:36;21.20;65.02
64961;SHT31;51487;52.266;10.542;2022-08-03T05:59:01;21.27;64.33
64961;SHT31;51487;52.266;10.542;2022-08-03T06:01:27;21.34;64.42
64961;SHT31;51487;52.266;10.542;2022-08-03T06:03:52;21.39;64.06
64961;SHT31;51487;52.266;10.542;2022-08-03T06:06:18;21.45;64.23
64961;SHT31;51487;52.266;10.542;2022-08-03T06:08:44;21.52;64.38
64961;SHT31;51487;52.266;10.542;2022-08-03T06:11:11;21.56;64.41
64961;SHT31;51487;52.266;10.542;2022-08-03T06:13:37;21.62;64.37
64961;SHT31;51487;52.266;10.542;2022-08-03T06:16:03;21.67;64.01
64961;SHT31;51487;52.266;10.542;2022-08-03T06:18:29;21.76;63.77
64961;SHT31;51487;52.266;10.542;2022-08-03T06:20:55;21.83;63.66
64961;SHT31;51487;52.266;10.542;2022-08-03T06:23:21;21.89;63.09
64961;SHT31;51487;52.266;10.542;2022-08-03T06:25:47;21.93;64.17
64961;SHT31;51487;52.266;10.542;2022-08-03T06:28:13;21.99;63.24
64961;SHT31;51487;52.266;10.542;2022-08-03T06:30:39;22.03;63.12
64961;SHT31;51487;52.266;10.542;2022-08-03T06:33:06;22.13;63.09
64961;SHT31;51487;52.266;10.542;2022-08-03T06:35:32;22.21;62.94
64961;SHT31;51487;52.266;10.542;2022-08-03T06:37:58;22.30;62.35
64961;SHT31;51487;52.266;10.542;2022-08-03T06:40:24;22.44;62.11
64961;SHT31;51487;52.266;10.542;2022-08-03T06:42:57;22.52;62.15
64961;SHT31;51487;52.266;10.542;2022-08-03T06:45:24;22.65;62.60
64961;SHT31;51487;52.266;10.542;2022-08-03T06:48:08;22.78;61.92
64961;SHT31;51487;52.266;10.542;2022-08-03T06:50:38;22.82;61.36
64961;SHT31;51487;52.266;10.542;2022-08-03T06:53:04;22.86;61.46
64961;SHT31;51487;52.266;10.542;2022-08-03T06:55:31;22.96;61.11
64961;SHT31;51487;52.266;10.542;2022-08-03T06:57:58;23.02;61.40
64961;SHT31;51487;52.266;10.542;2022-08-03T07:00:23;23.09;60.49
64961;SHT31;51487;52.266;10.542;2022-08-03T07:02:49;23.15;60.29
64961;SHT31;51487;52.266;10.542;2022-08-03T07:05:15;23.28;60.02
64961;SHT31;51487;52.266;10.542;2022-08-03T07:07:41;23.37;60.32
64961;SHT31;51487;52.266;10.542;2022-08-03T07:10:08;23.47;60.34
64961;SHT31;51487;52.266;10.542;2022-08-03T07:12:34;23.61;58.85
64961;SHT31;51487;52.266;10.542;2022-08-03T07:15:01;23.86;58.97
64961;SHT31;51487;52.266;10.542;2022-08-03T07:17:29;23.97;58.00
64961;SHT31;51487;52.266;10.542;2022-08-03T07:19:55;24.12;58.12
64961;SHT31;51487;52.266;10.542;2022-08-03T07:22:21;24.22;57.80
64961;SHT31;51487;52.266;10.542;2022-08-03T07:24:46;24.28;58.02
64961;SHT31;51487;52.266;10.542;2022-08-03T07:27:12;24.28;58.26
64961;SHT31;51487;52.266;10.542;2022-08-03T07:29:37;24.30;58.20
64961;SHT31;51487;52.266;10.542;2022-08-03T07:32:04;24.33;58.03
64961;SHT31;51487;52.266;10.542;2022-08-03T07:34:30;24.40;58.51
64961;SHT31;51487;52.266;10.542;2022-08-03T07:36:56;24.43;58.64
64961;SHT31;51487;52.266;10.542;2022-08-03T07:39:22;24.46;58.68
64961;SHT31;51487;52.266;10.542;2022-08-03T07:41:48;24.50;59.05
64961;SHT31;51487;52.266;10.542;2022-08-03T07:44:17;24.56;59.13
64961;SHT31;51487;52.266;10.542;2022-08-03T07:46:43;24.64;58.39
64961;SHT31;51487;52.266;10.542;2022-08-03T07:49:08;24.86;57.71
64961;SHT31;51487;52.266;10.542;2022-08-03T07:51:34;25.10;56.74
64961;SHT31;51487;52.266;10.542;2022-08-03T07:54:00;25.20;57.51
64961;SHT31;51487;52.266;10.542;2022-08-03T07:56:26;25.20;57.56
64961;SHT31;51487;52.266;10.542;2022-08-03T07:58:53;25.37;56.60
64961;SHT31;51487;52.266;10.542;2022-08-03T08:01:19;25.39;56.44
64961;SHT31;51487;52.266;10.542;2022-08-03T08:03:46;25.49;56.39
64961;SHT31;51487;52.266;10.542;2022-08-03T08:06:11;25.53;56.73
64961;SHT31;51487;52.266;10.542;2022-08-03T08:08:38;25.69;56.25
64961;SHT31;51487;52.266;10.542;2022-08-03T08:11:04;25.80;55.22
64961;SHT31;51487;52.266;10.542;2022-08-03T08:13:30;26.04;54.29
64961;SHT31;51487;52.266;10.542;2022-08-03T08:15:56;26.24;54.19
64961;SHT31;51487;52.266;10.542;2022-08-03T08:18:22;26.45;53.26
64961;SHT31;51487;52.266;10.542;2022-08-03T08:20:48;26.62;51.65
64961;SHT31;51487;52.266;10.542;2022-08-03T08:23:15;26.82;50.98
64961;SHT31;51487;52.266;10.542;2022-08-03T08:25:48;26.98;50.09
64961;SHT31;51487;52.266;10.542;2022-08-03T08:28:20;27.07;50.49
64961;SHT31;51487;52.266;10.542;2022-08-03T08:30:46;27.00;51.69
64961;SHT31;51487;52.266;10.542;2022-08-03T08:33:13;27.00;50.96
64961;SHT31;51487;52.266;10.542;2022-08-03T08:35:38;26.99;51.22
64961;SHT31;51487;52.266;10.542;2022-08-03T08:38:04;27.09;50.48
64961;SHT31;51487;52.266;10.542;2022-08-03T08:40:30;27.19;50.27
64961;SHT31;51487;52.266;10.542;2022-08-03T08:42:55;27.26;50.37
64961;SHT31;51487;52.266;10.542;2022-08-03T08:45:21;27.42;50.08
64961;SHT31;51487;52.266;10.542;2022-08-03T08:47:48;27.20;51.07
64961;SHT31;51487;52.266;10.542;2022-08-03T08:50:20;27.29;50.16
64961;SHT31;51487;52.266;10.542;2022-08-03T08:52:48;27.49;49.42
64961;SHT31;51487;52.266;10.542;2022-08-03T08:55:21;27.60;49.28
64961;SHT31;51487;52.266;10.542;2022-08-03T08:57:54;27.65;49.70
64961;SHT31;51487;52.266;10.542;2022-08-03T09:00:21;27.73;49.07
64961;SHT31;51487;52.266;10.542;2022-08-03T09:02:47;27.71;49.91
64961;SHT31;51487;52.266;10.542;2022-08-03T09:05:16;27.77;49.56
64961;SHT31;51487;52.266;10.542;2022-08-03T09:07:45;27.77;49.84
64961;SHT31;51487;52.266;10.542;2022-08-03T09:10:16;27.71;49.77
64961;SHT31;51487;52.266;10.542;2022-08-03T09:12:51;27.71;49.84
64961;SHT31;51487;52.266;10.542;2022-08-03T09:15:24;27.71;50.02
64961;SHT31;51487;52.266;10.542;2022-08-03T09:17:55;27.68;50.29
64961;SHT31;51487;52.266;10.542;2022-08-03T09:20:23;27.64;49.97
64961;SHT31;51487;52.266;10.542;2022-08-03T09:22:58;27.74;49.25
64961;SHT31;51487;52.266;10.542;2022-08-03T09:25:40;27.90;48.41
64961;SHT31;51487;52.266;10.542;2022-08-03T09:28:14;27.90;48.80
64961;SHT31;51487;52.266;10.542;2022-08-03T09:30:44;27.90;48.49
64961;SHT31;51487;52.266;10.542;2022-08-03T09:33:12;27.83;48.81
64961;SHT31;51487;52.266;10.542;2022-08-03T09:35:49;27.93;48.36
64961;SHT31;51487;52.266;10.542;2022-08-03T09:40:52;27.78;49.47
64961;SHT31;51487;52.266;10.542;2022-08-03T09:43:18;27.84;48.29
64961;SHT31;51487;52.266;10.542;2022-08-03T09:45:44;27.94;47.84
64961;SHT31;51487;52.266;10.542;2022-08-03T09:48:26;27.94;48.89
64961;SHT31;51487;52.266;10.542;2022-08-03T09:51:01;27.90;49.73
64961;SHT31;51487;52.266;10.542;2022-08-03T09:53:42;27.97;48.37
64961;SHT31;51487;52.266;10.542;2022-08-03T09:56:08;28.09;47.47
64961;SHT31;51487;52.266;10.542;2022-08-03T09:58:45;28.22;48.53
64961;SHT31;51487;52.266;10.542;2022-08-03T10:01:15;28.28;47.33
64961;SHT31;51487;52.266;10.542;2022-08-03T10:03:41;28.18;48.18
64961;SHT31;51487;52.266;10.542;2022-08-03T10:06:18;28.15;48.34
64961;SHT31;51487;52.266;10.542;2022-08-03T10:08:45;28.19;47.60
64961;SHT31;51487;52.266;10.542;2022-08-03T10:11:11;28.28;47.86
64961;SHT31;51487;52.266;10.542;2022-08-03T10:13:37;28.46;46.86
64961;SHT31;51487;52.266;10.542;2022-08-03T10:16:04;28.45;47.70
64961;SHT31;51487;52.266;10.542;2022-08-03T10:18:31;28.43;47.02
64961;SHT31;51487;52.266;10.542;2022-08-03T10:21:03;28.49;47.48
64961;SHT31;51487;52.266;10.542;2022-08-03T10:23:34;28.57;46.85
64961;SHT31;51487;52.266;10.542;2022-08-03T10:26:03;28.67;45.99
64961;SHT31;51487;52.266;10.542;2022-08-03T10:28:36;28.91;45.75
64961;SHT31;51487;52.266;10.542;2022-08-03T10:31:05;29.06;46.23
64961;SHT31;51487;52.266;10.542;2022-08-03T10:33:37;28.96;45.99
64961;SHT31;51487;52.266;10.542;2022-08-03T10:36:07;28.87;46.86
64961;SHT31;51487;52.266;10.542;2022-08-03T10:38:46;28.89;46.28
64961;SHT31;51487;52.266;10.542;2022-08-03T10:41:20;29.03;45.67
64961;SHT31;51487;52.266;10.542;2022-08-03T10:44:16;28.90;46.97
64961;SHT31;51487;52.266;10.542;2022-08-03T10:46:44;28.93;46.25
64961;SHT31;51487;52.266;10.542;2022-08-03T10:49:28;28.82;47.10
64961;SHT31;51487;52.266;10.542;2022-08-03T10:51:55;28.69;46.92
64961;SHT31;51487;52.266;10.542;2022-08-03T10:57:02;29.01;45.19
64961;SHT31;51487;52.266;10.542;2022-08-03T11:02:15;29.11;45.29
64961;SHT31;51487;52.266;10.542;2022-08-03T11:04:42;29.20;45.09
64961;SHT31;51487;52.266;10.542;2022-08-03T11:09:43;29.42;44.62
64961;SHT31;51487;52.266;10.542;2022-08-03T11:12:30;29.37;45.18
64961;SHT31;51487;52.266;10.542;2022-08-03T11:14:58;29.37;44.32
64961;SHT31;51487;52.266;10.542;2022-08-03T11:17:24;29.45;44.02
64961;SHT31;51487;52.266;10.542;2022-08-03T11:19:52;29.51;44.35
64961;SHT31;51487;52.266;10.542;2022-08-03T11:22:20;29.61;43.72
64961;SHT31;51487;52.266;10.542;2022-08-03T11:27:25;29.48;44.02
64961;SHT31;51487;52.266;10.542;2022-08-03T11:30:15;29.57;43.49
64961;SHT31;51487;52.266;10.542;2022-08-03T11:32:53;29.73;42.99
64961;SHT31;51487;52.266;10.542;2022-08-03T11:35:31;29.66;43.87
64961;SHT31;51487;52.266;10.542;2022-08-03T11:40:52;29.66;43.15
64961;SHT31;51487;52.266;10.542;2022-08-03T11:46:06;29.82;42.97
64961;SHT31;51487;52.266;10.542;2022-08-03T11:48:36;29.86;42.72
64961;SHT31;51487;52.266;10.542;2022-08-03T11:51:06;29.85;42.63
64961;SHT31;51487;52.266;10.542;2022-08-03T11:53:32;29.98;42.25
64961;SHT31;51487;52.266;10.542;2022-08-03T11:56:00;30.10;41.34
64961;SHT31;51487;52.266;10.542;2022-08-03T11:58:26;30.13;42.35
64961;SHT31;51487;52.266;10.542;2022-08-03T12:01:02;30.17;41.38
64961;SHT31;51487;52.266;10.542;2022-08-03T12:03:32;30.21;41.39
64961;SHT31;51487;52.266;10.542;2022-08-03T12:05:58;30.45;40.31
64961;SHT31;51487;52.266;10.542;2022-08-03T12:10:53;30.51;41.40
64961;SHT31;51487;52.266;10.542;2022-08-03T12:13:20;30.53;41.34
64961;SHT31;51487;52.266;10.542;2022-08-03T12:15:55;30.68;40.57
64961;SHT31;51487;52.266;10.542;2022-08-03T12:18:22;30.60;40.69
64961;SHT31;51487;52.266;10.542;2022-08-03T12:20:51;30.58;41.02
64961;SHT31;51487;52.266;10.542;2022-08-03T12:23:19;30.64;40.35
64961;SHT31;51487;52.266;10.542;2022-08-03T12:25:46;30.78;40.29
64961;SHT31;51487;52.266;10.542;2022-08-03T12:28:20;30.88;41.08
64961;SHT31;51487;52.266;10.542;2022-08-03T12:30:51;31.05;40.29
64961;SHT31;51487;52.266;10.542;2022-08-03T12:33:24;30.99;40.79
64961;SHT31;51487;52.266;10.542;2022-08-03T12:36:08;31.02;40.83
64961;SHT31;51487;52.266;10.542;2022-08-03T12:38:38;31.06;40.23
64961;SHT31;51487;52.266;10.542;2022-08-03T12:41:10;31.11;39.83
64961;SHT31;51487;52.266;10.542;2022-08-03T12:43:49;31.09;39.35
64961;SHT31;51487;52.266;10.542;2022-08-03T12:46:18;31.05;39.53
64961;SHT31;51487;52.266;10.542;2022-08-03T12:49:09;30.95;39.43
64961;SHT31;51487;52.266;10.542;2022-08-03T12:54:15;30.89;40.09
64961;SHT31;51487;52.266;10.542;2022-08-03T12:57:05;30.98;40.58
64961;SHT31;51487;52.266;10.542;2022-08-03T12:59:37;30.92;41.17
64961;SHT31;51487;52.266;10.542;2022-08-03T13:02:16;30.89;41.34
64961;SHT31;51487;52.266;10.542;2022-08-03T13:04:43;30.86;41.04
64961;SHT31;51487;52.266;10.542;2022-08-03T13:07:10;30.94;41.79
64961;SHT31;51487;52.266;10.542;2022-08-03T13:09:51;31.06;40.23
64961;SHT31;51487;52.266;10.542;2022-08-03T13:12:22;31.03;40.19
64961;SHT31;51487;52.266;10.542;2022-08-03T13:14:56;31.14;40.75
64961;SHT31;51487;52.266;10.542;2022-08-03T13:17:23;31.15;40.03
64961;SHT31;51487;52.266;10.542;2022-08-03T13:19:50;31.09;40.11
64961;SHT31;51487;52.266;10.542;2022-08-03T13:22:27;31.15;40.29
64961;SHT31;51487;52.266;10.542;2022-08-03T13:24:55;31.12;40.69
64961;SHT31;51487;52.266;10.542;2022-08-03T13:27:23;31.16;40.61
64961;SHT31;51487;52.266;10.542;2022-08-03T13:29:49;31.35;39.76
64961;SHT31;51487;52.266;10.542;2022-08-03T13:32:14;31.47;39.87
64961;SHT31;51487;52.266;10.542;2022-08-03T13:34:40;31.51;40.53
64961;SHT31;51487;52.266;10.542;2022-08-03T13:37:06;31.54;40.33
64961;SHT31;51487;52.266;10.542;2022-08-03T13:39:31;31.43;39.89
64961;SHT31;51487;52.266;10.542;2022-08-03T13:41:57;31.12;39.30
64961;SHT31;51487;52.266;10.542;2022-08-03T13:44:22;31.11;39.93
64961;SHT31;51487;52.266;10.542;2022-08-03T13:46:48;31.22;40.43
64961;SHT31;51487;52.266;10.542;2022-08-03T13:49:14;31.23;40.32
64961;SHT31;51487;52.266;10.542;2022-08-03T13:51:39;31.46;39.74
64961;SHT31;51487;52.266;10.542;2022-08-03T13:54:05;31.47;40.38
64961;SHT31;51487;52.266;10.542;2022-08-03T13:56:31;31.54;38.78
64961;SHT31;51487;52.266;10.542;2022-08-03T13:58:57;31.72;38.51
64961;SHT31;51487;52.266;10.542;2022-08-03T14:01:24;31.67;38.44
64961;SHT31;51487;52.266;10.542;2022-08-03T14:03:49;31.78;39.38
64961;SHT31;51487;52.266;10.542;2022-08-03T14:06:20;31.74;39.29
64961;SHT31;51487;52.266;10.542;2022-08-03T14:08:45;31.80;39.00
64961;SHT31;51487;52.266;10.542;2022-08-03T14:11:13;31.77;38.29
64961;SHT31;51487;52.266;10.542;2022-08-03T14:13:39;31.77;38.11
64961;SHT31;51487;52.266;10.542;2022-08-03T14:16:06;31.80;38.65
64961;SHT31;51487;52.266;10.542;2022-08-03T14:18:31;31.72;39.42
64961;SHT31;51487;52.266;10.542;2022-08-03T14:20:58;31.64;39.76
64961;SHT31;51487;52.266;10.542;2022-08-03T14:23:24;31.66;39.18
64961;SHT31;51487;52.266;10.542;2022-08-03T14:25:51;31.66;40.29
64961;SHT31;51487;52.266;10.542;2022-08-03T14:28:21;31.63;40.18
64961;SHT31;51487;52.266;10.542;2022-08-03T14:30:47;31.73;38.60
64961;SHT31;51487;52.266;10.542;2022-08-03T14:33:13;31.67;39.82
64961;SHT31;51487;52.266;10.542;2022-08-03T14:35:39;31.73;39.27
64961;SHT31;51487;52.266;10.542;2022-08-03T14:38:05;31.77;39.20
64961;SHT31;51487;52.266;10.542;2022-08-03T14:40:30;31.83;39.55
64961;SHT31;51487;52.266;10.542;2022-08-03T14:42:56;32.04;38.31
64961;SHT31;51487;52.266;10.542;2022-08-03T14:45:22;31.98;39.32
64961;SHT31;51487;52.266;10.542;2022-08-03T14:47:47;31.83;38.75
64961;SHT31;51487;52.266;10.542;2022-08-03T14:50:13;31.84;38.49
64961;SHT31;51487;52.266;10.542;2022-08-03T14:52:38;31.72;39.29
64961;SHT31;51487;52.266;10.542;2022-08-03T14:55:05;31.64;39.51
64961;SHT31;51487;52.266;10.542;2022-08-03T14:57:30;31.53;41.13
64961;SHT31;51487;52.266;10.542;2022-08-03T14:59:56;31.57;39.84
64961;SHT31;51487;52.266;10.542;2022-08-03T15:02:21;31.54;39.78
64961;SHT31;51487;52.266;10.542;2022-08-03T15:04:47;31.81;39.65
64961;SHT31;51487;52.266;10.542;2022-08-03T15:07:12;32.04;39.16
64961;SHT31;51487;52.266;10.542;2022-08-03T15:09:38;31.98;40.09
64961;SHT31;51487;52.266;10.542;2022-08-03T15:12:05;31.83;40.52
64961;SHT31;51487;52.266;10.542;2022-08-03T15:14:31;31.80;39.14
64961;SHT31;51487;52.266;10.542;2022-08-03T15:16:56;31.66;39.48
64961;SHT31;51487;52.266;10.542;2022-08-03T15:19:22;31.66;39.64
64961;SHT31;51487;52.266;10.542;2022-08-03T15:21:47;31.49;40.45
64961;SHT31;51487;52.266;10.542;2022-08-03T15:24:13;31.39;42.04
64961;SHT31;51487;52.266;10.542;2022-08-03T15:26:39;31.39;39.59
64961;SHT31;51487;52.266;10.542;2022-08-03T15:29:04;31.60;38.42
64961;SHT31;51487;52.266;10.542;2022-08-03T15:31:30;31.54;38.86
64961;SHT31;51487;52.266;10.542;2022-08-03T15:33:55;31.69;38.41
64961;SHT31;51487;52.266;10.542;2022-08-03T15:36:21;31.64;37.96
64961;SHT31;51487;52.266;10.542;2022-08-03T15:38:47;31.59;38.56
64961;SHT31;51487;52.266;10.542;2022-08-03T15:41:13;31.53;38.47
64961;SHT31;51487;52.266;10.542;2022-08-03T15:43:39;31.35;39.60
64961;SHT31;51487;52.266;10.542;2022-08-03T15:46:06;31.29;39.15
64961;SHT31;51487;52.266;10.542;2022-08-03T15:48:32;31.21;39.63
64961;SHT31;51487;52.266;10.542;2022-08-03T15:50:58;31.23;39.48
64961;SHT31;51487;52.266;10.542;2022-08-03T15:53:24;31.19;39.77
64961;SHT31;51487;52.266;10.542;2022-08-03T15:55:49;31.08;40.78
64961;SHT31;51487;52.266;10.542;2022-08-03T15:58:15;30.98;40.77
64961;SHT31;51487;52.266;10.542;2022-08-03T16:00:42;30.91;41.60